Time;durP1;ratioP1;P1;durP2;ratioP2;P2;SDS_P1;SDS_P2;PMS_P1;PMS_P2;Temp;Humidity;BMP_temperature;BMP_pressure;BME280_temperature;BME280_humidity;BME280_pressure;Samples;Min_cycle;Max_cycle;Signal;HPM_P1;HPM_P2
2021/11/16 00:00:25;;;;;;;43.00;32.05;;;;;;;;;;143735;566;46022;-56
2021/11/16 00:02:52;;;;;;;39.40;29.87;;;;;;;;;;143736;575;46012;-56
2021/11/16 00:05:19;;;;;;;33.45;25.25;;;;;;;;;;143738;625;46018;-56
2021/11/16 00:07:48;;;;;;;30.67;24.70;;;;;;;;;;143738;649;45021;-56
2021/11/16 00:10:15;;;;;;;29.15;22.80;;;;;;;;;;143736;585;46020;-56
2021/11/16 00:12:42;;;;;;;25.75;21.30;;;;;;;;;;143734;582;46012;-56
2021/11/16 00:15:10;;;;;;;24.27;20.70;;;;;;;;;;143736;581;46021;-56
2021/11/16 00:17:37;;;;;;;31.40;23.35;;;;;;;;;;143738;586;45020;-56
2021/11/16 00:20:06;;;;;;;28.77;21.85;;;;;;;;;;143735;585;46022;-56
2021/11/16 00:22:34;;;;;;;27.77;20.73;;;;;;;;;;143736;700;46020;-56
2021/11/16 00:27:37;;;;;;;36.45;26.58;;;;;;;;;;143736;576;46020;-56
2021/11/16 00:30:05;;;;;;;38.72;29.60;;;;;;;;;;143736;573;46022;-56
2021/11/16 00:32:33;;;;;;;35.08;28.75;;;;;;;;;;143731;593;46012;-56
2021/11/16 00:35:00;;;;;;;38.05;28.67;;;;;;;;;;143737;577;46018;-56
2021/11/16 00:37:27;;;;;;;32.38;24.23;;;;;;;;;;143740;569;45027;-56
2021/11/16 00:40:01;;;;;;;24.20;17.40;;;;;;;;;;143736;572;46023;-56
2021/11/16 00:42:28;;;;;;;23.60;17.60;;;;;;;;;;143736;609;46012;-56
2021/11/16 00:44:56;;;;;;;26.90;16.37;;;;;;;;;;143736;564;46018;-56
2021/11/16 00:47:23;;;;;;;25.55;17.12;;;;;;;;;;143739;732;46020;-56
2021/11/16 00:49:51;;;;;;;22.87;14.73;;;;;;;;;;143736;625;46022;-56
2021/11/16 00:52:19;;;;;;;26.62;16.62;;;;;;;;;;143733;594;46013;-56
2021/11/16 00:54:46;;;;;;;22.37;14.50;;;;;;;;;;143735;614;46020;-56
2021/11/16 00:57:13;;;;;;;23.70;15.85;;;;;;;;;;143738;590;45020;-56
2021/11/16 00:59:41;;;;;;;21.70;16.00;;;;;;;;;;143735;613;46022;-56
2021/11/16 01:02:08;;;;;;;25.23;13.88;;;;;;;;;;143734;589;46012;-56
2021/11/16 01:04:35;;;;;;;18.90;16.20;;;;;;;;;;143736;600;46020;-56
2021/11/16 01:07:05;;;;;;;24.10;14.68;;;;;;;;;;143736;598;46010;-56
2021/11/16 01:09:32;;;;;;;24.25;13.98;;;;;;;;;;143736;595;46020;-56
2021/11/16 01:11:59;;;;;;;24.55;12.73;;;;;;;;;;143733;727;46012;-56
2021/11/16 01:14:26;;;;;;;23.45;13.13;;;;;;;;;;143736;617;46021;-56
2021/11/16 01:16:53;;;;;;;20.52;14.38;;;;;;;;;;143738;694;45031;-56
2021/11/16 01:19:20;;;;;;;23.10;16.20;;;;;;;;;;143730;604;47022;-56
2021/11/16 01:21:48;;;;;;;27.15;13.93;;;;;;;;;;143733;669;46013;-56
2021/11/16 01:24:15;;;;;;;18.95;13.13;;;;;;;;;;143736;603;46020;-56
2021/11/16 01:26:44;;;;;;;22.48;16.80;;;;;;;;;;143739;601;45020;-56
2021/11/16 01:29:12;;;;;;;28.08;14.38;;;;;;;;;;143735;589;46021;-56
2021/11/16 01:31:39;;;;;;;25.27;15.82;;;;;;;;;;143733;712;46012;-56
2021/11/16 01:34:07;;;;;;;25.35;16.52;;;;;;;;;;143737;563;46018;-57
2021/11/16 01:36:35;;;;;;;24.02;16.83;;;;;;;;;;143739;631;46020;-56
2021/11/16 01:39:03;;;;;;;32.22;18.00;;;;;;;;;;143736;580;46022;-57
2021/11/16 01:41:31;;;;;;;22.23;16.85;;;;;;;;;;143733;587;46012;-57
2021/11/16 01:43:59;;;;;;;24.42;16.70;;;;;;;;;;143736;577;46021;-56
2021/11/16 01:46:28;;;;;;;20.37;16.05;;;;;;;;;;143740;602;45020;-56
2021/11/16 01:48:56;;;;;;;20.25;15.73;;;;;;;;;;143736;579;46020;-56
2021/11/16 01:51:27;;;;;;;19.17;16.02;;;;;;;;;;143733;567;46012;-56
2021/11/16 01:54:01;;;;;;;22.17;16.33;;;;;;;;;;143736;579;46020;-56
2021/11/16 01:56:31;;;;;;;21.52;16.37;;;;;;;;;;143739;613;45020;-57
2021/11/16 01:58:59;;;;;;;24.20;16.42;;;;;;;;;;143735;577;47021;-56
2021/11/16 02:01:29;;;;;;;28.87;16.77;;;;;;;;;;143735;585;46020;-56
2021/11/16 02:03:56;;;;;;;22.52;16.12;;;;;;;;;;143737;609;46020;-56
2021/11/16 02:06:31;;;;;;;23.62;17.37;;;;;;;;;;143738;614;45021;-56
2021/11/16 02:08:59;;;;;;;26.40;17.20;;;;;;;;;;143736;569;46029;-56
2021/11/16 02:11:26;;;;;;;22.02;18.50;;;;;;;;;;143736;602;46020;-56
2021/11/16 02:13:53;;;;;;;23.45;16.42;;;;;;;;;;143735;580;45913;-56
2021/11/16 02:16:21;;;;;;;28.23;20.58;;;;;;;;;;143737;590;46014;-57
2021/11/16 02:18:48;;;;;;;32.15;18.67;;;;;;;;;;143736;590;46020;-56
2021/11/16 02:21:16;;;;;;;34.35;18.58;;;;;;;;;;143733;644;46020;-56
2021/11/16 02:23:43;;;;;;;30.95;18.23;;;;;;;;;;143734;586;46020;-56
2021/11/16 02:26:12;;;;;;;27.80;19.45;;;;;;;;;;143738;568;45020;-56
2021/11/16 02:28:43;;;;;;;27.25;20.10;;;;;;;;;;143735;583;46022;-56
2021/11/16 02:31:11;;;;;;;29.52;20.15;;;;;;;;;;143734;733;46020;-56
2021/11/16 02:33:38;;;;;;;22.15;18.40;;;;;;;;;;143737;608;46020;-56
2021/11/16 02:36:05;;;;;;;23.58;17.45;;;;;;;;;;143739;570;45021;-56
2021/11/16 02:38:34;;;;;;;29.37;18.83;;;;;;;;;;143736;586;46020;-56
2021/11/16 02:41:03;;;;;;;30.10;20.37;;;;;;;;;;143733;583;46012;-57
2021/11/16 02:43:35;;;;;;;29.98;18.65;;;;;;;;;;143736;602;46019;-56
2021/11/16 02:46:03;;;;;;;27.48;21.23;;;;;;;;;;143738;642;46010;-56
2021/11/16 02:48:31;;;;;;;23.77;20.05;;;;;;;;;;143736;584;46022;-56
2021/11/16 02:51:03;;;;;;;29.52;19.42;;;;;;;;;;143734;590;46020;-56
2021/11/16 02:53:30;;;;;;;29.17;18.80;;;;;;;;;;143738;574;45020;-56
2021/11/16 02:55:57;;;;;;;24.02;17.85;;;;;;;;;;143738;588;45020;-56
2021/11/16 02:58:26;;;;;;;22.08;17.08;;;;;;;;;;143734;565;46022;-56
2021/11/16 03:01:02;;;;;;;26.10;18.10;;;;;;;;;;143731;599;46012;-56
2021/11/16 03:03:29;;;;;;;22.83;17.37;;;;;;;;;;143734;564;46018;-56
2021/11/16 03:05:57;;;;;;;25.25;17.55;;;;;;;;;;143738;586;45021;-56
2021/11/16 03:08:26;;;;;;;22.30;17.52;;;;;;;;;;143734;567;46020;-56
2021/11/16 03:11:00;;;;;;;23.45;17.17;;;;;;;;;;143732;564;46020;-56
2021/11/16 03:13:29;;;;;;;22.17;17.77;;;;;;;;;;143733;570;46021;-56
2021/11/16 03:15:56;;;;;;;27.52;17.50;;;;;;;;;;143735;595;46020;-56
2021/11/16 03:18:23;;;;;;;32.05;20.45;;;;;;;;;;143734;609;46020;-56
2021/11/16 03:20:50;;;;;;;26.83;19.00;;;;;;;;;;143734;610;46012;-56
2021/11/16 03:23:20;;;;;;;21.27;16.15;;;;;;;;;;143736;580;46018;-56
2021/11/16 03:25:52;;;;;;;24.65;18.27;;;;;;;;;;143738;588;45020;-56
2021/11/16 03:28:20;;;;;;;28.92;18.77;;;;;;;;;;143734;669;46021;-56
2021/11/16 03:30:49;;;;;;;24.87;16.70;;;;;;;;;;143732;592;46020;-56
2021/11/16 03:33:18;;;;;;;22.37;17.08;;;;;;;;;;143734;585;46020;-56
2021/11/16 03:35:46;;;;;;;29.70;17.55;;;;;;;;;;143737;571;45033;-56
2021/11/16 03:38:17;;;;;;;25.48;18.10;;;;;;;;;;143734;686;46023;-56
2021/11/16 03:40:46;;;;;;;20.50;16.12;;;;;;;;;;143730;593;47012;-56
2021/11/16 03:43:15;;;;;;;20.73;15.35;;;;;;;;;;143735;589;46019;-56
2021/11/16 03:45:42;;;;;;;26.83;17.02;;;;;;;;;;143738;616;45020;-57
2021/11/16 03:48:10;;;;;;;20.67;15.20;;;;;;;;;;143734;578;46022;-56
2021/11/16 03:50:37;;;;;;;23.00;16.52;;;;;;;;;;143734;630;46020;-56
2021/11/16 03:53:04;;;;;;;18.35;12.43;;;;;;;;;;143734;585;46012;-56
2021/11/16 03:55:35;;;;;;;23.92;14.85;;;;;;;;;;143736;586;45033;-56
2021/11/16 03:58:04;;;;;;;19.10;15.00;;;;;;;;;;143733;646;47021;-56
2021/11/16 04:00:40;;;;;;;25.17;17.40;;;;;;;;;;143733;594;46012;-56
2021/11/16 04:03:09;;;;;;;21.87;16.67;;;;;;;;;;143733;675;46020;-56
2021/11/16 04:05:37;;;;;;;21.40;16.42;;;;;;;;;;143736;625;46010;-56
2021/11/16 04:08:06;;;;;;;23.87;16.17;;;;;;;;;;143734;569;46020;-56
2021/11/16 04:10:33;;;;;;;24.65;16.33;;;;;;;;;;143731;582;46012;-56
2021/11/16 04:13:00;;;;;;;26.65;16.45;;;;;;;;;;143735;592;46021;-56
2021/11/16 04:15:29;;;;;;;19.12;15.25;;;;;;;;;;143736;592;45020;-56
2021/11/16 04:17:57;;;;;;;30.02;18.50;;;;;;;;;;143733;575;46020;-56
2021/11/16 04:20:34;;;;;;;31.60;17.52;;;;;;;;;;143731;648;46025;-56
2021/11/16 04:23:04;;;;;;;27.00;16.65;;;;;;;;;;143732;604;46020;-56
2021/11/16 04:25:32;;;;;;;25.60;15.13;;;;;;;;;;143735;576;46014;-56
2021/11/16 04:28:02;;;;;;;20.10;14.87;;;;;;;;;;143727;581;48022;-56
2021/11/16 04:30:29;;;;;;;20.80;14.75;;;;;;;;;;143731;585;46012;-56
2021/11/16 04:32:57;;;;;;;20.15;14.50;;;;;;;;;;143735;589;46020;-56
2021/11/16 04:35:25;;;;;;;17.95;13.18;;;;;;;;;;143736;581;45021;-56
2021/11/16 04:37:55;;;;;;;18.80;13.52;;;;;;;;;;143734;736;46023;-56
2021/11/16 04:40:30;;;;;;;25.52;14.85;;;;;;;;;;143733;573;46020;-56
2021/11/16 04:42:59;;;;;;;22.67;17.37;;;;;;;;;;143735;586;46021;-56
2021/11/16 04:45:27;;;;;;;23.83;16.37;;;;;;;;;;143738;584;45020;-56
2021/11/16 04:47:58;;;;;;;22.30;15.98;;;;;;;;;;143734;745;46022;-56
2021/11/16 05:04:22;;;;;;;16.73;11.77;;;;;;;;;;143734;577;46021;-58
2021/11/16 05:06:52;;;;;;;20.80;12.43;;;;;;;;;;143735;571;46014;-57
2021/11/16 05:09:19;;;;;;;19.87;12.52;;;;;;;;;;143734;685;46020;-57
2021/11/16 05:11:46;;;;;;;16.48;11.18;;;;;;;;;;143731;569;46013;-58
2021/11/16 05:14:13;;;;;;;21.52;12.20;;;;;;;;;;143735;566;46020;-56
2021/11/16 05:16:40;;;;;;;16.73;11.93;;;;;;;;;;143736;696;45020;-56
2021/11/16 05:19:07;;;;;;;17.73;10.32;;;;;;;;;;143734;611;46022;-56
2021/11/16 05:21:34;;;;;;;19.15;12.00;;;;;;;;;;143732;585;46012;-56
2021/11/16 05:24:02;;;;;;;19.17;12.27;;;;;;;;;;143734;576;46020;-56
2021/11/16 05:26:29;;;;;;;19.00;11.10;;;;;;;;;;143736;573;46010;-56
2021/11/16 05:28:58;;;;;;;17.55;11.82;;;;;;;;;;143734;573;46023;-56
2021/11/16 05:31:26;;;;;;;18.40;11.82;;;;;;;;;;143734;586;46020;-56
2021/11/16 05:33:54;;;;;;;20.58;12.65;;;;;;;;;;143735;685;46020;-56
2021/11/16 05:36:22;;;;;;;23.27;12.80;;;;;;;;;;143736;588;46021;-57
2021/11/16 05:38:51;;;;;;;17.48;13.00;;;;;;;;;;143734;579;46020;-57
2021/11/16 05:41:19;;;;;;;20.37;12.68;;;;;;;;;;143732;708;46013;-56
2021/11/16 05:43:48;;;;;;;19.25;13.75;;;;;;;;;;143732;570;46020;-57
2021/11/16 05:46:22;;;;;;;25.52;13.93;;;;;;;;;;143736;575;46014;-57
2021/11/16 05:48:51;;;;;;;28.43;13.57;;;;;;;;;;143734;610;46021;-56
2021/11/16 05:51:19;;;;;;;16.45;10.32;;;;;;;;;;143734;606;46009;-57
2021/11/16 05:53:52;;;;;;;17.33;10.55;;;;;;;;;;143733;601;46020;-56
2021/11/16 05:56:22;;;;;;;17.20;11.27;;;;;;;;;;143737;667;46020;-56
2021/11/16 05:58:52;;;;;;;14.98;10.45;;;;;;;;;;143726;599;46023;-57
2021/11/16 06:01:28;;;;;;;14.55;10.00;;;;;;;;;;143734;580;46020;-56
2021/11/16 06:03:56;;;;;;;16.48;10.38;;;;;;;;;;143733;574;46020;-56
2021/11/16 06:06:32;;;;;;;13.05;9.57;;;;;;;;;;143737;621;45021;-56
2021/11/16 06:09:00;;;;;;;14.95;9.63;;;;;;;;;;143734;676;46022;-56
2021/11/16 06:11:28;;;;;;;14.27;8.55;;;;;;;;;;143734;723;46012;-56
2021/11/16 06:13:56;;;;;;;14.48;8.25;;;;;;;;;;143735;593;46020;-56
2021/11/16 06:16:23;;;;;;;15.55;9.80;;;;;;;;;;143736;615;46014;-56
2021/11/16 06:18:53;;;;;;;15.18;9.90;;;;;;;;;;143734;566;46022;-56
2021/11/16 06:21:22;;;;;;;13.73;8.85;;;;;;;;;;143731;617;46012;-56
2021/11/16 06:23:49;;;;;;;17.50;9.77;;;;;;;;;;143736;582;46018;-56
2021/11/16 06:26:16;;;;;;;17.02;10.35;;;;;;;;;;143735;589;46010;-56
2021/11/16 06:28:43;;;;;;;14.00;9.77;;;;;;;;;;143734;690;46023;-56
2021/11/16 06:31:11;;;;;;;20.12;9.82;;;;;;;;;;143731;577;46012;-56
2021/11/16 06:33:38;;;;;;;17.67;8.52;;;;;;;;;;143734;592;46019;-56
2021/11/16 06:36:05;;;;;;;14.45;9.18;;;;;;;;;;143737;676;45021;-56
2021/11/16 06:38:32;;;;;;;21.48;9.05;;;;;;;;;;143732;589;47020;-56
2021/11/16 06:41:00;;;;;;;13.50;9.13;;;;;;;;;;143732;699;46013;-58
2021/11/16 06:43:29;;;;;;;14.05;9.00;;;;;;;;;;143736;579;45039;-58
2021/11/16 06:45:59;;;;;;;14.57;9.52;;;;;;;;;;143732;602;46014;-58
2021/11/16 06:48:26;;;;;;;15.65;10.13;;;;;;;;;;143734;585;46021;-58
2021/11/16 06:50:54;;;;;;;28.80;11.52;;;;;;;;;;143731;646;46013;-56
2021/11/16 06:53:32;;;;;;;16.58;12.13;;;;;;;;;;143735;594;45020;-56
2021/11/16 06:56:00;;;;;;;23.60;12.25;;;;;;;;;;143737;575;45021;-56
2021/11/16 06:58:28;;;;;;;20.17;12.02;;;;;;;;;;143734;589;46020;-56
2021/11/16 07:00:56;;;;;;;21.52;12.00;;;;;;;;;;143731;598;46012;-56
2021/11/16 07:03:25;;;;;;;20.08;11.20;;;;;;;;;;143735;668;46020;-56
2021/11/16 07:05:56;;;;;;;20.25;11.15;;;;;;;;;;143734;752;46021;-56
2021/11/16 07:08:42;;;;;;;18.27;11.60;;;;;;;;;;143733;571;46022;-56
2021/11/16 07:11:22;;;;;;;14.52;9.63;;;;;;;;;;143734;633;46020;-56
2021/11/16 07:14:15;;;;;;;18.98;9.43;;;;;;;;;;143734;614;46018;-57
2021/11/16 07:17:03;;;;;;;17.40;9.75;;;;;;;;;;143736;590;45020;-56
2021/11/16 07:19:47;;;;;;;12.80;9.32;;;;;;;;;;143734;658;46021;-56
2021/11/16 07:22:26;;;;;;;13.02;8.05;;;;;;;;;;143731;601;46012;-57
2021/11/16 07:25:06;;;;;;;15.00;8.75;;;;;;;;;;143731;611;46020;-57
2021/11/16 07:27:39;;;;;;;34.13;20.83;;;;;;;;;;143738;745;45027;-57
2021/11/16 07:30:26;;;;;;;28.33;19.70;;;;;;;;;;143734;571;46022;-57
2021/11/16 07:32:59;;;;;;;23.77;15.18;;;;;;;;;;143734;579;46020;-56
2021/11/16 07:35:32;;;;;;;30.40;19.87;;;;;;;;;;143733;575;46018;-56
2021/11/16 07:38:01;;;;;;;29.42;16.10;;;;;;;;;;143735;658;46012;-56
2021/11/16 07:40:29;;;;;;;21.50;11.95;;;;;;;;;;143734;587;46022;-56
2021/11/16 07:42:59;;;;;;;31.58;18.98;;;;;;;;;;143733;647;46012;-56
2021/11/16 07:45:35;;;;;;;20.77;14.35;;;;;;;;;;143737;586;45036;-57
2021/11/16 07:48:06;;;;;;;26.20;17.02;;;;;;;;;;143738;566;45021;-57
2021/11/16 07:50:46;;;;;;;28.05;14.93;;;;;;;;;;143733;614;46020;-58
2021/11/16 07:53:33;;;;;;;24.40;14.50;;;;;;;;;;143733;589;46020;-58
2021/11/16 07:56:08;;;;;;;20.58;12.32;;;;;;;;;;143734;564;46020;-57
2021/11/16 07:58:46;;;;;;;16.58;10.50;;;;;;;;;;143737;662;46020;-56
2021/11/16 08:01:22;;;;;;;20.85;12.43;;;;;;;;;;143733;590;46022;-56
2021/11/16 08:03:51;;;;;;;18.20;11.50;;;;;;;;;;143730;573;46013;-56
2021/11/16 08:06:28;;;;;;;20.92;10.07;;;;;;;;;;143734;591;46018;-56
2021/11/16 08:09:09;;;;;;;13.23;9.80;;;;;;;;;;143737;589;46020;-56
2021/11/16 08:11:50;;;;;;;16.58;9.30;;;;;;;;;;143733;599;46021;-56
2021/11/16 08:14:17;;;;;;;17.73;10.70;;;;;;;;;;143729;583;46012;-56
2021/11/16 08:17:10;;;;;;;23.00;11.43;;;;;;;;;;143731;571;46020;-57
2021/11/16 08:19:39;;;;;;;32.33;13.35;;;;;;;;;;143735;609;46021;-57
2021/11/16 08:22:10;;;;;;;20.35;10.73;;;;;;;;;;143734;561;46020;-57
2021/11/16 08:24:46;;;;;;;19.65;9.60;;;;;;;;;;143731;569;46013;-57
2021/11/16 08:27:21;;;;;;;25.20;16.08;;;;;;;;;;143733;570;46021;-57
2021/11/16 08:29:51;;;;;;;35.92;22.65;;;;;;;;;;143738;597;45020;-57
2021/11/16 08:32:25;;;;;;;29.02;16.10;;;;;;;;;;143734;624;46022;-56
2021/11/16 08:34:57;;;;;;;22.83;13.50;;;;;;;;;;143733;585;46021;-57
2021/11/16 08:37:31;;;;;;;25.35;15.13;;;;;;;;;;143736;593;46018;-56
2021/11/16 08:40:01;;;;;;;23.90;14.10;;;;;;;;;;143737;578;46020;-57
2021/11/16 08:42:35;;;;;;;23.02;13.45;;;;;;;;;;143735;646;45023;-57
2021/11/16 08:45:15;;;;;;;19.05;11.12;;;;;;;;;;143734;578;46020;-57
2021/11/16 08:47:52;;;;;;;18.27;11.68;;;;;;;;;;143735;699;46019;-57
2021/11/16 08:50:34;;;;;;;18.48;10.45;;;;;;;;;;143737;742;45021;-57
2021/11/16 08:53:11;;;;;;;16.52;8.82;;;;;;;;;;143734;565;46020;-57
2021/11/16 08:55:41;;;;;;;15.65;9.85;;;;;;;;;;143732;605;46012;-57
2021/11/16 08:58:11;;;;;;;16.85;9.70;;;;;;;;;;143733;624;46018;-56
2021/11/16 09:00:45;;;;;;;13.23;8.55;;;;;;;;;;143736;570;45020;-56
2021/11/16 09:03:19;;;;;;;16.55;8.43;;;;;;;;;;143734;564;46021;-57
2021/11/16 09:05:49;;;;;;;12.65;8.65;;;;;;;;;;143733;614;46012;-58
2021/11/16 09:08:26;;;;;;;15.57;9.68;;;;;;;;;;143735;607;46018;-58
2021/11/16 09:10:59;;;;;;;17.87;9.98;;;;;;;;;;143737;574;46014;-57
2021/11/16 09:13:29;;;;;;;15.15;9.02;;;;;;;;;;143735;622;46023;-57
2021/11/16 09:16:09;;;;;;;14.73;9.00;;;;;;;;;;143734;590;46012;-57
2021/11/16 09:18:47;;;;;;;13.38;8.80;;;;;;;;;;143735;589;46018;-57
2021/11/16 09:21:26;;;;;;;19.37;12.95;;;;;;;;;;143731;604;47020;-57
2021/11/16 09:24:08;;;;;;;27.20;17.23;;;;;;;;;;143735;566;46022;-57
2021/11/16 09:27:09;;;;;;;24.23;13.30;;;;;;;;;;143733;586;46035;-56
2021/11/16 09:29:39;;;;;;;25.48;13.43;;;;;;;;;;143734;574;46018;-56
2021/11/16 09:32:11;;;;;;;22.98;14.25;;;;;;;;;;143737;578;46021;-57
2021/11/16 09:34:44;;;;;;;26.23;10.93;;;;;;;;;;143736;591;46023;-57
2021/11/16 09:37:25;;;;;;;22.05;13.27;;;;;;;;;;143733;566;46012;-56
2021/11/16 09:40:03;;;;;;;18.12;11.12;;;;;;;;;;143736;645;46020;-57
2021/11/16 09:42:39;;;;;;;18.35;11.32;;;;;;;;;;143737;569;45021;-56
2021/11/16 09:45:12;;;;;;;14.15;10.25;;;;;;;;;;143733;585;46020;-57
2021/11/16 09:47:41;;;;;;;19.80;11.95;;;;;;;;;;143731;607;46030;-57
2021/11/16 09:50:20;;;;;;;21.27;12.75;;;;;;;;;;143735;635;46020;-57
2021/11/16 09:52:50;;;;;;;21.33;11.30;;;;;;;;;;143738;578;46020;-58
2021/11/16 09:55:21;;;;;;;23.08;12.40;;;;;;;;;;143735;596;46022;-57
2021/11/16 09:58:30;;;;;;;16.75;10.20;;;;;;;;;;143735;734;46012;-57
2021/11/16 10:00:57;;;;;;;20.30;13.90;;;;;;;;;;143730;615;46022;-57
2021/11/16 10:03:25;;;;;;;18.70;11.52;;;;;;;;;;143737;673;46020;-58
2021/11/16 10:05:54;;;;;;;18.80;10.25;;;;;;;;;;143734;700;46022;-59
2021/11/16 10:08:26;;;;;;;18.90;10.45;;;;;;;;;;143733;592;46012;-57
2021/11/16 10:10:57;;;;;;;18.35;11.77;;;;;;;;;;143735;667;46021;-57
2021/11/16 10:13:28;;;;;;;17.77;10.85;;;;;;;;;;143737;571;46014;-57
2021/11/16 10:15:58;;;;;;;15.27;9.93;;;;;;;;;;143735;613;46020;-56
2021/11/16 10:18:27;;;;;;;15.20;8.75;;;;;;;;;;143734;578;46012;-57
2021/11/16 10:20:55;;;;;;;16.42;8.48;;;;;;;;;;143736;606;46018;-57
2021/11/16 10:23:40;;;;;;;16.73;9.38;;;;;;;;;;143738;587;45020;-57
2021/11/16 10:26:08;;;;;;;18.67;9.52;;;;;;;;;;143735;569;46021;-57
2021/11/16 10:28:38;;;;;;;17.10;9.25;;;;;;;;;;143735;585;46012;-57
2021/11/16 10:31:05;;;;;;;16.75;9.65;;;;;;;;;;143737;582;45040;-57
2021/11/16 10:33:35;;;;;;;13.60;9.13;;;;;;;;;;143739;601;45021;-56
2021/11/16 10:36:07;;;;;;;13.07;8.95;;;;;;;;;;143735;565;46020;-56
2021/11/16 10:38:40;;;;;;;15.70;9.07;;;;;;;;;;143735;576;46020;-56
2021/11/16 10:41:12;;;;;;;12.50;9.77;;;;;;;;;;143736;746;46018;-56
2021/11/16 10:44:06;;;;;;;15.70;8.70;;;;;;;;;;143738;566;45020;-57
2021/11/16 10:46:43;;;;;;;14.93;9.48;;;;;;;;;;143735;736;46021;-56
2021/11/16 10:49:14;;;;;;;12.88;8.63;;;;;;;;;;143735;583;46012;-56
2021/11/16 10:51:45;;;;;;;15.00;8.75;;;;;;;;;;143734;590;46020;-56
2021/11/16 10:54:15;;;;;;;19.87;9.65;;;;;;;;;;143740;586;45021;-56
2021/11/16 10:56:44;;;;;;;12.98;8.73;;;;;;;;;;143735;571;46020;-57
2021/11/16 10:59:14;;;;;;;15.40;8.60;;;;;;;;;;143735;599;46012;-56
2021/11/16 11:01:51;;;;;;;12.77;7.85;;;;;;;;;;143738;602;45021;-56
2021/11/16 11:04:23;;;;;;;16.55;9.63;;;;;;;;;;143741;732;45026;-57
2021/11/16 11:06:50;;;;;;;20.17;8.43;;;;;;;;;;143736;573;46020;-57
2021/11/16 11:09:18;;;;;;;13.93;8.38;;;;;;;;;;143731;595;46020;-57
2021/11/16 11:11:47;;;;;;;15.13;9.40;;;;;;;;;;143736;564;46020;-58
2021/11/16 11:14:39;;;;;;;12.85;8.63;;;;;;;;;;143737;644;46014;-56
2021/11/16 11:17:11;;;;;;;16.02;8.95;;;;;;;;;;143735;583;46021;-57
2021/11/16 11:19:40;;;;;;;15.20;8.95;;;;;;;;;;143736;628;46012;-56
2021/11/16 11:22:23;;;;;;;16.73;9.52;;;;;;;;;;143736;578;46020;-56
2021/11/16 11:27:57;;;;;;;13.90;8.13;;;;;;;;;;143735;590;46012;-56
2021/11/16 11:30:24;;;;;;;12.93;8.30;;;;;;;;;;143733;645;46020;-56
2021/11/16 11:32:54;;;;;;;14.85;7.97;;;;;;;;;;143736;581;45038;-57
2021/11/16 11:35:24;;;;;;;24.83;10.02;;;;;;;;;;143739;570;46020;-57
2021/11/16 11:38:01;;;;;;;28.80;8.63;;;;;;;;;;143735;610;46020;-56
2021/11/16 11:40:31;;;;;;;21.37;9.32;;;;;;;;;;143735;626;46012;-57
2021/11/16 11:43:07;;;;;;;22.00;9.50;;;;;;;;;;143734;591;46018;-57
2021/11/16 11:45:38;;;;;;;24.60;10.05;;;;;;;;;;143740;683;45033;-56
2021/11/16 11:48:13;;;;;;;14.82;8.73;;;;;;;;;;143736;574;46021;-56
2021/11/16 11:51:15;;;;;;;20.73;8.85;;;;;;;;;;143733;571;46020;-56
2021/11/16 11:53:42;;;;;;;18.02;9.82;;;;;;;;;;143735;580;46020;-56
2021/11/16 11:56:13;;;;;;;19.33;9.02;;;;;;;;;;143737;564;46010;-56
2021/11/16 11:58:42;;;;;;;16.40;9.32;;;;;;;;;;143736;676;46020;-56
2021/11/16 12:01:15;;;;;;;14.38;8.07;;;;;;;;;;143736;647;46020;-56
2021/11/16 12:03:46;;;;;;;17.23;9.43;;;;;;;;;;143736;579;46020;-56
2021/11/16 12:06:13;;;;;;;17.15;8.85;;;;;;;;;;143738;623;45020;-57
2021/11/16 12:08:41;;;;;;;12.60;7.97;;;;;;;;;;143735;593;47021;-56
2021/11/16 12:11:08;;;;;;;15.18;7.68;;;;;;;;;;143734;584;46021;-57
2021/11/16 12:13:40;;;;;;;13.75;8.80;;;;;;;;;;143737;676;45040;-56
2021/11/16 12:16:21;;;;;;;12.18;8.45;;;;;;;;;;143737;570;46015;-56
2021/11/16 12:18:50;;;;;;;14.95;9.02;;;;;;;;;;143734;588;46020;-56
2021/11/16 12:21:49;;;;;;;15.27;9.02;;;;;;;;;;143736;577;46020;-56
2021/11/16 12:24:31;;;;;;;14.25;8.93;;;;;;;;;;143736;591;46019;-56
2021/11/16 12:27:04;;;;;;;12.70;7.90;;;;;;;;;;143737;564;46020;-56
2021/11/16 12:29:43;;;;;;;12.45;8.52;;;;;;;;;;143736;592;46020;-56
2021/11/16 12:32:21;;;;;;;14.02;9.00;;;;;;;;;;143735;576;46012;-56
2021/11/16 12:34:58;;;;;;;14.48;8.57;;;;;;;;;;143737;560;46018;-57
2021/11/16 12:37:36;;;;;;;12.35;8.50;;;;;;;;;;143740;603;45024;-56
2021/11/16 12:40:08;;;;;;;15.20;8.43;;;;;;;;;;143736;573;46020;-56
2021/11/16 12:42:36;;;;;;;16.00;7.95;;;;;;;;;;143734;564;46020;-56
2021/11/16 12:45:08;;;;;;;18.92;8.35;;;;;;;;;;143738;563;46018;-57
2021/11/16 12:47:54;;;;;;;11.27;7.87;;;;;;;;;;143738;581;45021;-56
2021/11/16 12:50:23;;;;;;;15.95;8.32;;;;;;;;;;143738;620;46020;-57
2021/11/16 12:52:53;;;;;;;11.68;9.20;;;;;;;;;;143733;583;46012;-56
2021/11/16 12:55:26;;;;;;;14.30;9.27;;;;;;;;;;143738;607;46014;-56
2021/11/16 12:57:59;;;;;;;19.62;11.73;;;;;;;;;;143736;644;46010;-56
2021/11/16 13:00:39;;;;;;;17.45;11.68;;;;;;;;;;143735;687;46020;-56
2021/11/16 13:03:07;;;;;;;14.73;10.70;;;;;;;;;;143733;587;46024;-56
2021/11/16 13:05:45;;;;;;;15.82;11.65;;;;;;;;;;143736;617;46020;-56
2021/11/16 13:08:14;;;;;;;17.48;9.73;;;;;;;;;;143739;572;45033;-56
2021/11/16 13:10:54;;;;;;;13.27;9.73;;;;;;;;;;143738;566;46020;-58
2021/11/16 13:13:26;;;;;;;17.12;12.00;;;;;;;;;;143735;569;46012;-56
2021/11/16 13:16:01;;;;;;;23.40;15.93;;;;;;;;;;143738;583;46019;-58
2021/11/16 13:18:29;;;;;;;;;;;;;;;;;;143743;981;45021;-58
2021/11/16 13:21:17;;;;;;;24.20;15.02;;;;;;;;;;143745;569;47020;-58
2021/11/16 13:23:55;;;;;;;23.55;14.50;;;;;;;;;;143735;645;46021;-58
2021/11/16 13:26:32;;;;;;;22.80;14.45;;;;;;;;;;143735;583;46018;-58
2021/11/16 13:29:23;;;;;;;20.73;12.90;;;;;;;;;;143738;750;45020;-58
2021/11/16 13:31:54;;;;;;;27.77;19.12;;;;;;;;;;143735;570;46020;-58
2021/11/16 13:34:42;;;;;;;34.65;19.77;;;;;;;;;;143735;631;46012;-56
2021/11/16 13:37:21;;;;;;;20.75;14.07;;;;;;;;;;143733;637;46020;-56
2021/11/16 13:39:49;;;;;;;16.05;11.12;;;;;;;;;;143739;584;45035;-56
2021/11/16 13:42:22;;;;;;;18.05;10.88;;;;;;;;;;143736;609;46020;-57
2021/11/16 13:44:55;;;;;;;34.90;20.02;;;;;;;;;;143733;593;47012;-56
2021/11/16 13:47:30;;;;;;;33.22;24.92;;;;;;;;;;143735;585;46021;-57
2021/11/16 13:50:28;;;;;;;26.85;18.35;;;;;;;;;;143737;581;46014;-56
2021/11/16 13:53:00;;;;;;;30.83;20.08;;;;;;;;;;143736;576;46021;-56
2021/11/16 13:55:45;;;;;;;40.40;30.23;;;;;;;;;;143736;583;46012;-56
2021/11/16 13:58:15;;;;;;;32.35;22.20;;;;;;;;;;143738;577;46020;-56
2021/11/16 14:00:50;;;;;;;33.28;22.65;;;;;;;;;;143739;571;45021;-56
2021/11/16 14:03:21;;;;;;;;;;;;;;;;;;143740;981;46021;-56
2021/11/16 14:05:55;;;;;;;30.27;19.70;;;;;;;;;;143744;621;46012;-56
2021/11/16 14:08:31;;;;;;;32.50;20.62;;;;;;;;;;143737;575;45021;-56
2021/11/16 14:10:59;;;;;;;26.75;17.62;;;;;;;;;;143739;577;45021;-56
2021/11/16 14:13:29;;;;;;;29.50;20.85;;;;;;;;;;143736;577;46029;-56
2021/11/16 14:16:01;;;;;;;31.35;19.65;;;;;;;;;;143734;586;46021;-56
2021/11/16 14:18:29;;;;;;;26.70;17.08;;;;;;;;;;143736;600;46018;-56
2021/11/16 14:21:09;;;;;;;31.30;17.55;;;;;;;;;;143739;571;46011;-57
2021/11/16 14:23:39;;;;;;;26.77;17.80;;;;;;;;;;143735;598;46021;-57
2021/11/16 14:26:29;;;;;;;31.60;20.83;;;;;;;;;;143731;591;47010;-56
2021/11/16 14:28:56;;;;;;;30.05;19.45;;;;;;;;;;143738;593;45020;-56
2021/11/16 14:31:26;;;;;;;26.73;19.95;;;;;;;;;;143737;577;46014;-56
2021/11/16 14:34:04;;;;;;;25.08;16.70;;;;;;;;;;143736;594;46020;-58
2021/11/16 14:36:36;;;;;;;24.67;16.60;;;;;;;;;;143736;602;46020;-58
2021/11/16 14:39:16;;;;;;;23.33;14.90;;;;;;;;;;143737;699;46021;-56
2021/11/16 14:41:57;;;;;;;23.12;15.88;;;;;;;;;;143740;565;45020;-56
2021/11/16 14:44:31;;;;;;;22.55;15.27;;;;;;;;;;143735;578;46022;-56
2021/11/16 14:47:02;;;;;;;21.83;15.00;;;;;;;;;;143733;592;46013;-57
2021/11/16 14:52:34;;;;;;;26.02;17.33;;;;;;;;;;143737;594;46012;-56
2021/11/16 14:55:07;;;;;;;28.17;19.75;;;;;;;;;;143737;728;46021;-56
2021/11/16 14:57:58;;;;;;;28.55;18.37;;;;;;;;;;143735;564;46012;-56
2021/11/16 15:00:38;;;;;;;30.67;21.50;;;;;;;;;;143736;590;46020;-56
2021/11/16 15:03:09;;;;;;;32.35;19.83;;;;;;;;;;143736;581;46010;-55
2021/11/16 15:05:37;;;;;;;27.83;17.92;;;;;;;;;;143736;565;46022;-57
2021/11/16 15:08:24;;;;;;;26.27;16.92;;;;;;;;;;143733;594;46012;-55
2021/11/16 15:11:16;;;;;;;21.15;14.02;;;;;;;;;;143737;564;45912;-55